sensor_id;sensor_type;location;lat;lon;timestamp;temperature;humidity
1225;DHT22;602;48.000;7.840;2022-12-18T00:00:44;-2.90;99.90
1225;DHT22;602;48.000;7.840;2022-12-18T00:03:12;-2.80;99.90
1225;DHT22;602;48.000;7.840;2022-12-18T00:05:46;-2.90;99.90
1225;DHT22;602;48.000;7.840;2022-12-18T00:08:13;-2.80;99.90
1225;DHT22;602;48.000;7.840;2022-12-18T00:10:40;-2.90;99.90
1225;DHT22;602;48.000;7.840;2022-12-18T00:13:07;-3.00;99.90
1225;DHT22;602;48.000;7.840;2022-12-18T00:15:34;-3.10;99.90
1225;DHT22;602;48.000;7.840;2022-12-18T00:18:02;-3.10;99.90
1225;DHT22;602;48.000;7.840;2022-12-18T00:20:29;-3.10;99.90
1225;DHT22;602;48.000;7.840;2022-12-18T00:22:56;-3.10;99.90
1225;DHT22;602;48.000;7.840;2022-12-18T00:25:23;-3.00;99.90
1225;DHT22;602;48.000;7.840;2022-12-18T00:27:50;-3.00;99.90
1225;DHT22;602;48.000;7.840;2022-12-18T00:30:17;-2.90;99.90
1225;DHT22;602;48.000;7.840;2022-12-18T00:32:44;-3.00;99.90
1225;DHT22;602;48.000;7.840;2022-12-18T00:35:12;-2.90;99.90
1225;DHT22;602;48.000;7.840;2022-12-18T00:37:39;-3.00;99.90
1225;DHT22;602;48.000;7.840;2022-12-18T00:40:07;-3.00;99.90
1225;DHT22;602;48.000;7.840;2022-12-18T00:42:36;-3.00;99.90
1225;DHT22;602;48.000;7.840;2022-12-18T00:45:21;-2.80;99.90
1225;DHT22;602;48.000;7.840;2022-12-18T00:47:48;-2.70;99.90
1225;DHT22;602;48.000;7.840;2022-12-18T00:50:16;-2.70;99.90
1225;DHT22;602;48.000;7.840;2022-12-18T00:52:43;-2.80;99.90
1225;DHT22;602;48.000;7.840;2022-12-18T00:55:10;-2.90;99.90
1225;DHT22;602;48.000;7.840;2022-12-18T00:57:37;-3.00;99.90
1225;DHT22;602;48.000;7.840;2022-12-18T01:00:05;-3.00;99.90
1225;DHT22;602;48.000;7.840;2022-12-18T01:02:33;-3.10;99.90
1225;DHT22;602;48.000;7.840;2022-12-18T01:05:00;-3.20;99.90
1225;DHT22;602;48.000;7.840;2022-12-18T01:07:28;-3.20;99.90
1225;DHT22;602;48.000;7.840;2022-12-18T01:09:55;-3.10;99.90
1225;DHT22;602;48.000;7.840;2022-12-18T01:12:22;-3.10;99.90
1225;DHT22;602;48.000;7.840;2022-12-18T01:14:49;-3.10;99.90
1225;DHT22;602;48.000;7.840;2022-12-18T01:17:16;-3.20;99.90
1225;DHT22;602;48.000;7.840;2022-12-18T01:19:43;-3.20;99.90
1225;DHT22;602;48.000;7.840;2022-12-18T01:22:10;-3.30;99.90
1225;DHT22;602;48.000;7.840;2022-12-18T01:24:38;-3.40;99.90
1225;DHT22;602;48.000;7.840;2022-12-18T01:27:05;-3.50;99.90
1225;DHT22;602;48.000;7.840;2022-12-18T01:29:31;-3.60;99.90
1225;DHT22;602;48.000;7.840;2022-12-18T01:31:59;-3.50;99.90
1225;DHT22;602;48.000;7.840;2022-12-18T01:34:26;-3.40;99.90
1225;DHT22;602;48.000;7.840;2022-12-18T01:36:53;-3.40;99.90
1225;DHT22;602;48.000;7.840;2022-12-18T01:39:20;-3.40;99.90
1225;DHT22;602;48.000;7.840;2022-12-18T01:41:48;-3.30;99.90
1225;DHT22;602;48.000;7.840;2022-12-18T01:44:57;-3.40;99.90
1225;DHT22;602;48.000;7.840;2022-12-18T01:47:27;-3.30;99.90
1225;DHT22;602;48.000;7.840;2022-12-18T01:49:56;-3.30;99.90
1225;DHT22;602;48.000;7.840;2022-12-18T01:52:25;-3.10;99.90
1225;DHT22;602;48.000;7.840;2022-12-18T01:54:53;-3.10;99.90
1225;DHT22;602;48.000;7.840;2022-12-18T01:57:23;-3.20;99.90
1225;DHT22;602;48.000;7.840;2022-12-18T01:59:53;-3.20;99.90
1225;DHT22;602;48.000;7.840;2022-12-18T02:02:22;-3.40;99.90
1225;DHT22;602;48.000;7.840;2022-12-18T02:04:49;-3.40;99.90
1225;DHT22;602;48.000;7.840;2022-12-18T02:07:20;-3.50;99.90
1225;DHT22;602;48.000;7.840;2022-12-18T02:09:59;-3.50;99.90
1225;DHT22;602;48.000;7.840;2022-12-18T02:12:34;-3.40;99.90
1225;DHT22;602;48.000;7.840;2022-12-18T02:15:09;-3.40;99.90
1225;DHT22;602;48.000;7.840;2022-12-18T02:17:44;-3.40;99.90
1225;DHT22;602;48.000;7.840;2022-12-18T02:20:18;-3.40;99.90
1225;DHT22;602;48.000;7.840;2022-12-18T02:22:58;-3.40;99.90
1225;DHT22;602;48.000;7.840;2022-12-18T02:28:19;-3.50;99.90
1225;DHT22;602;48.000;7.840;2022-12-18T02:30:48;-3.50;99.90
1225;DHT22;602;48.000;7.840;2022-12-18T02:33:16;-3.50;99.90
1225;DHT22;602;48.000;7.840;2022-12-18T02:35:45;-3.40;99.90
1225;DHT22;602;48.000;7.840;2022-12-18T02:38:14;-3.40;99.90
1225;DHT22;602;48.000;7.840;2022-12-18T02:40:42;-3.40;99.90
1225;DHT22;602;48.000;7.840;2022-12-18T02:43:11;-3.30;99.90
1225;DHT22;602;48.000;7.840;2022-12-18T02:45:50;-3.30;99.90
1225;DHT22;602;48.000;7.840;2022-12-18T02:48:19;-3.30;99.90
1225;DHT22;602;48.000;7.840;2022-12-18T02:50:53;-3.20;99.90
1225;DHT22;602;48.000;7.840;2022-12-18T02:53:27;-3.50;99.90
1225;DHT22;602;48.000;7.840;2022-12-18T02:56:05;-3.50;99.90
1225;DHT22;602;48.000;7.840;2022-12-18T02:58:40;-3.50;99.90
1225;DHT22;602;48.000;7.840;2022-12-18T03:01:13;-3.40;99.90
1225;DHT22;602;48.000;7.840;2022-12-18T03:03:47;-3.30;99.90
1225;DHT22;602;48.000;7.840;2022-12-18T03:06:20;-3.30;99.90
1225;DHT22;602;48.000;7.840;2022-12-18T03:08:56;-3.30;99.90
1225;DHT22;602;48.000;7.840;2022-12-18T03:11:27;-3.20;99.90
1225;DHT22;602;48.000;7.840;2022-12-18T03:14:10;-3.10;99.90
1225;DHT22;602;48.000;7.840;2022-12-18T03:16:41;-3.20;99.90
1225;DHT22;602;48.000;7.840;2022-12-18T03:19:11;-3.10;99.90
1225;DHT22;602;48.000;7.840;2022-12-18T03:21:44;-3.20;99.90
1225;DHT22;602;48.000;7.840;2022-12-18T03:24:12;-3.10;99.90
1225;DHT22;602;48.000;7.840;2022-12-18T03:26:43;-3.20;99.90
1225;DHT22;602;48.000;7.840;2022-12-18T03:29:16;-3.30;99.90
1225;DHT22;602;48.000;7.840;2022-12-18T03:31:49;-3.40;99.90
1225;DHT22;602;48.000;7.840;2022-12-18T03:34:22;-3.40;99.90
1225;DHT22;602;48.000;7.840;2022-12-18T03:36:50;-3.40;99.90
1225;DHT22;602;48.000;7.840;2022-12-18T03:39:18;-3.50;99.90
1225;DHT22;602;48.000;7.840;2022-12-18T03:41:51;-3.50;99.90
1225;DHT22;602;48.000;7.840;2022-12-18T03:44:24;-3.50;99.90
1225;DHT22;602;48.000;7.840;2022-12-18T03:46:59;-3.50;99.90
1225;DHT22;602;48.000;7.840;2022-12-18T03:49:34;-3.50;99.90
1225;DHT22;602;48.000;7.840;2022-12-18T03:52:04;-3.50;99.90
1225;DHT22;602;48.000;7.840;2022-12-18T03:54:33;-3.50;99.90
1225;DHT22;602;48.000;7.840;2022-12-18T03:57:04;-3.70;99.90
1225;DHT22;602;48.000;7.840;2022-12-18T03:59:34;-3.90;99.90
1225;DHT22;602;48.000;7.840;2022-12-18T04:02:05;-3.80;99.90
1225;DHT22;602;48.000;7.840;2022-12-18T04:04:34;-3.80;99.90
1225;DHT22;602;48.000;7.840;2022-12-18T04:07:02;-3.80;99.90
1225;DHT22;602;48.000;7.840;2022-12-18T04:09:30;-3.80;99.90
1225;DHT22;602;48.000;7.840;2022-12-18T04:11:58;-3.80;99.90
1225;DHT22;602;48.000;7.840;2022-12-18T04:14:25;-3.80;99.90
1225;DHT22;602;48.000;7.840;2022-12-18T04:16:52;-3.70;99.90
1225;DHT22;602;48.000;7.840;2022-12-18T04:19:20;-3.80;99.90
1225;DHT22;602;48.000;7.840;2022-12-18T04:21:47;-3.80;99.90
1225;DHT22;602;48.000;7.840;2022-12-18T04:24:14;-3.70;99.90
1225;DHT22;602;48.000;7.840;2022-12-18T04:26:41;-3.80;99.90
1225;DHT22;602;48.000;7.840;2022-12-18T04:29:08;-3.80;99.90
1225;DHT22;602;48.000;7.840;2022-12-18T04:31:35;-3.90;99.90
1225;DHT22;602;48.000;7.840;2022-12-18T04:34:01;-3.80;99.90
1225;DHT22;602;48.000;7.840;2022-12-18T04:36:30;-3.80;99.90
1225;DHT22;602;48.000;7.840;2022-12-18T04:38:57;-3.80;99.90
1225;DHT22;602;48.000;7.840;2022-12-18T04:41:24;-3.80;99.90
1225;DHT22;602;48.000;7.840;2022-12-18T04:43:50;-3.80;99.90
1225;DHT22;602;48.000;7.840;2022-12-18T04:46:17;-3.80;99.90
1225;DHT22;602;48.000;7.840;2022-12-18T04:48:45;-3.90;99.90
1225;DHT22;602;48.000;7.840;2022-12-18T04:51:12;-3.90;99.90
1225;DHT22;602;48.000;7.840;2022-12-18T04:53:41;-3.90;99.90
1225;DHT22;602;48.000;7.840;2022-12-18T04:56:10;-3.90;99.90
1225;DHT22;602;48.000;7.840;2022-12-18T04:58:39;-3.90;99.90
1225;DHT22;602;48.000;7.840;2022-12-18T05:01:06;-4.00;99.90
1225;DHT22;602;48.000;7.840;2022-12-18T05:03:34;-3.90;99.90
1225;DHT22;602;48.000;7.840;2022-12-18T05:06:02;-3.90;99.90
1225;DHT22;602;48.000;7.840;2022-12-18T05:08:29;-3.90;99.90
1225;DHT22;602;48.000;7.840;2022-12-18T05:11:00;-4.20;99.90
1225;DHT22;602;48.000;7.840;2022-12-18T05:13:28;-4.30;99.90
1225;DHT22;602;48.000;7.840;2022-12-18T05:15:55;-4.60;99.90
1225;DHT22;602;48.000;7.840;2022-12-18T05:18:22;-4.40;99.90
1225;DHT22;602;48.000;7.840;2022-12-18T05:20:49;-4.40;99.90
1225;DHT22;602;48.000;7.840;2022-12-18T05:23:16;-4.20;99.90
1225;DHT22;602;48.000;7.840;2022-12-18T05:25:50;-4.20;99.90
1225;DHT22;602;48.000;7.840;2022-12-18T05:28:18;-4.20;99.90
1225;DHT22;602;48.000;7.840;2022-12-18T05:30:48;-4.20;99.90
1225;DHT22;602;48.000;7.840;2022-12-18T05:33:16;-4.20;99.90
1225;DHT22;602;48.000;7.840;2022-12-18T05:35:42;-4.30;99.90
1225;DHT22;602;48.000;7.840;2022-12-18T05:38:09;-4.20;99.90
1225;DHT22;602;48.000;7.840;2022-12-18T05:40:36;-4.30;99.90
1225;DHT22;602;48.000;7.840;2022-12-18T05:43:06;-4.40;99.90
1225;DHT22;602;48.000;7.840;2022-12-18T05:45:36;-4.40;99.90
1225;DHT22;602;48.000;7.840;2022-12-18T05:48:04;-4.50;99.90
1225;DHT22;602;48.000;7.840;2022-12-18T05:50:34;-4.50;99.90
1225;DHT22;602;48.000;7.840;2022-12-18T05:53:01;-4.50;99.90
1225;DHT22;602;48.000;7.840;2022-12-18T05:55:27;-4.60;99.90
1225;DHT22;602;48.000;7.840;2022-12-18T05:57:54;-4.60;99.90
1225;DHT22;602;48.000;7.840;2022-12-18T06:00:21;-4.50;99.90
1225;DHT22;602;48.000;7.840;2022-12-18T06:02:49;-4.50;99.90
1225;DHT22;602;48.000;7.840;2022-12-18T06:05:16;-4.50;99.90
1225;DHT22;602;48.000;7.840;2022-12-18T06:07:43;-4.40;99.90
1225;DHT22;602;48.000;7.840;2022-12-18T06:10:10;-4.40;99.90
1225;DHT22;602;48.000;7.840;2022-12-18T06:12:37;-4.60;99.90
1225;DHT22;602;48.000;7.840;2022-12-18T06:15:05;-4.70;99.90
1225;DHT22;602;48.000;7.840;2022-12-18T06:17:32;-4.60;99.90
1225;DHT22;602;48.000;7.840;2022-12-18T06:20:01;-4.70;99.90
1225;DHT22;602;48.000;7.840;2022-12-18T06:22:28;-4.50;99.90
1225;DHT22;602;48.000;7.840;2022-12-18T06:24:56;-4.60;99.90
1225;DHT22;602;48.000;7.840;2022-12-18T06:27:24;-4.70;99.90
1225;DHT22;602;48.000;7.840;2022-12-18T06:29:51;-4.70;99.90
1225;DHT22;602;48.000;7.840;2022-12-18T06:32:18;-4.70;99.90
1225;DHT22;602;48.000;7.840;2022-12-18T06:34:45;-4.60;99.90
1225;DHT22;602;48.000;7.840;2022-12-18T06:37:13;-4.70;99.90
1225;DHT22;602;48.000;7.840;2022-12-18T06:39:40;-4.70;99.90
1225;DHT22;602;48.000;7.840;2022-12-18T06:42:07;-4.80;99.90
1225;DHT22;602;48.000;7.840;2022-12-18T06:44:34;-5.00;99.90
1225;DHT22;602;48.000;7.840;2022-12-18T06:47:01;-5.20;99.90
1225;DHT22;602;48.000;7.840;2022-12-18T06:49:27;-5.20;99.90
1225;DHT22;602;48.000;7.840;2022-12-18T06:51:54;-5.10;99.90
1225;DHT22;602;48.000;7.840;2022-12-18T06:54:23;-4.90;99.90
1225;DHT22;602;48.000;7.840;2022-12-18T06:56:49;-4.90;99.90
1225;DHT22;602;48.000;7.840;2022-12-18T06:59:16;-5.10;99.90
1225;DHT22;602;48.000;7.840;2022-12-18T07:01:43;-5.10;99.90
1225;DHT22;602;48.000;7.840;2022-12-18T07:04:10;-5.10;99.90
1225;DHT22;602;48.000;7.840;2022-12-18T07:06:37;-5.00;99.90
1225;DHT22;602;48.000;7.840;2022-12-18T07:09:04;-5.00;99.90
1225;DHT22;602;48.000;7.840;2022-12-18T07:11:33;-4.90;99.90
1225;DHT22;602;48.000;7.840;2022-12-18T07:14:00;-4.90;99.90
1225;DHT22;602;48.000;7.840;2022-12-18T07:16:27;-4.80;99.90
1225;DHT22;602;48.000;7.840;2022-12-18T07:18:55;-4.90;99.90
1225;DHT22;602;48.000;7.840;2022-12-18T07:21:23;-4.80;99.90
1225;DHT22;602;48.000;7.840;2022-12-18T07:23:50;-4.80;99.90
1225;DHT22;602;48.000;7.840;2022-12-18T07:26:18;-4.80;99.90
1225;DHT22;602;48.000;7.840;2022-12-18T07:28:47;-4.80;99.90
1225;DHT22;602;48.000;7.840;2022-12-18T07:31:16;-4.90;99.90
1225;DHT22;602;48.000;7.840;2022-12-18T07:33:43;-4.90;99.90
1225;DHT22;602;48.000;7.840;2022-12-18T07:36:10;-4.80;99.90
1225;DHT22;602;48.000;7.840;2022-12-18T07:38:38;-4.70;99.90
1225;DHT22;602;48.000;7.840;2022-12-18T07:41:06;-4.80;99.90
1225;DHT22;602;48.000;7.840;2022-12-18T07:43:34;-4.70;99.90
1225;DHT22;602;48.000;7.840;2022-12-18T07:46:03;-4.70;99.90
1225;DHT22;602;48.000;7.840;2022-12-18T07:48:30;-4.60;99.90
1225;DHT22;602;48.000;7.840;2022-12-18T07:50:58;-4.70;99.90
1225;DHT22;602;48.000;7.840;2022-12-18T07:53:25;-4.70;99.90
1225;DHT22;602;48.000;7.840;2022-12-18T07:55:55;-4.60;99.90
1225;DHT22;602;48.000;7.840;2022-12-18T07:58:22;-4.70;99.90
1225;DHT22;602;48.000;7.840;2022-12-18T08:00:49;-4.70;99.90
1225;DHT22;602;48.000;7.840;2022-12-18T08:03:17;-4.70;99.90
1225;DHT22;602;48.000;7.840;2022-12-18T08:05:44;-4.70;99.90
1225;DHT22;602;48.000;7.840;2022-12-18T08:08:11;-4.70;99.90
1225;DHT22;602;48.000;7.840;2022-12-18T08:10:38;-4.80;99.90
1225;DHT22;602;48.000;7.840;2022-12-18T08:13:05;-4.80;99.90
1225;DHT22;602;48.000;7.840;2022-12-18T08:15:32;-4.90;99.90
1225;DHT22;602;48.000;7.840;2022-12-18T08:17:59;-4.90;99.90
1225;DHT22;602;48.000;7.840;2022-12-18T08:20:27;-4.80;99.90
1225;DHT22;602;48.000;7.840;2022-12-18T08:22:54;-4.80;99.90
1225;DHT22;602;48.000;7.840;2022-12-18T08:25:23;-4.80;99.90
1225;DHT22;602;48.000;7.840;2022-12-18T08:27:50;-4.80;99.90
1225;DHT22;602;48.000;7.840;2022-12-18T08:30:17;-4.80;99.90
1225;DHT22;602;48.000;7.840;2022-12-18T08:32:44;-4.80;99.90
1225;DHT22;602;48.000;7.840;2022-12-18T08:35:11;-4.90;99.90
1225;DHT22;602;48.000;7.840;2022-12-18T08:37:39;-4.90;99.90
1225;DHT22;602;48.000;7.840;2022-12-18T08:40:07;-4.90;99.90
1225;DHT22;602;48.000;7.840;2022-12-18T08:42:35;-4.80;99.90
1225;DHT22;602;48.000;7.840;2022-12-18T08:45:19;-4.70;99.90
1225;DHT22;602;48.000;7.840;2022-12-18T08:47:46;-4.60;99.90
1225;DHT22;602;48.000;7.840;2022-12-18T08:50:13;-4.60;99.90
1225;DHT22;602;48.000;7.840;2022-12-18T08:52:42;-4.40;99.90
1225;DHT22;602;48.000;7.840;2022-12-18T08:55:09;-4.20;99.90
1225;DHT22;602;48.000;7.840;2022-12-18T08:57:36;-4.00;99.90
1225;DHT22;602;48.000;7.840;2022-12-18T09:00:04;-3.80;99.90
1225;DHT22;602;48.000;7.840;2022-12-18T09:02:31;-3.40;99.90
1225;DHT22;602;48.000;7.840;2022-12-18T09:05:00;-3.10;99.90
1225;DHT22;602;48.000;7.840;2022-12-18T09:07:27;-2.80;99.90
1225;DHT22;602;48.000;7.840;2022-12-18T09:09:55;-2.70;99.90
1225;DHT22;602;48.000;7.840;2022-12-18T09:12:22;-2.70;99.90
1225;DHT22;602;48.000;7.840;2022-12-18T09:14:48;-2.60;99.90
1225;DHT22;602;48.000;7.840;2022-12-18T09:17:15;-2.50;99.90
1225;DHT22;602;48.000;7.840;2022-12-18T09:19:42;-2.40;99.90
1225;DHT22;602;48.000;7.840;2022-12-18T09:22:10;-2.10;99.90
1225;DHT22;602;48.000;7.840;2022-12-18T09:24:36;-1.80;99.90
1225;DHT22;602;48.000;7.840;2022-12-18T09:27:05;-1.60;99.90
1225;DHT22;602;48.000;7.840;2022-12-18T09:29:32;-1.50;99.90
1225;DHT22;602;48.000;7.840;2022-12-18T09:31:59;-1.20;99.90
1225;DHT22;602;48.000;7.840;2022-12-18T09:34:26;-1.00;99.90
1225;DHT22;602;48.000;7.840;2022-12-18T09:36:53;-0.80;99.90
1225;DHT22;602;48.000;7.840;2022-12-18T09:39:20;-0.80;99.90
1225;DHT22;602;48.000;7.840;2022-12-18T09:41:51;-0.70;99.90
1225;DHT22;602;48.000;7.840;2022-12-18T09:44:26;-0.70;99.90
1225;DHT22;602;48.000;7.840;2022-12-18T09:47:25;-0.50;99.90
1225;DHT22;602;48.000;7.840;2022-12-18T09:50:01;-0.30;99.90
1225;DHT22;602;48.000;7.840;2022-12-18T09:52:35;-0.20;99.90
1225;DHT22;602;48.000;7.840;2022-12-18T09:55:10;-0.10;99.90
1225;DHT22;602;48.000;7.840;2022-12-18T09:57:45;0.00;99.90
1225;DHT22;602;48.000;7.840;2022-12-18T10:00:19;0.00;99.90
1225;DHT22;602;48.000;7.840;2022-12-18T10:02:46;0.00;99.90
1225;DHT22;602;48.000;7.840;2022-12-18T10:05:16;0.00;99.90
1225;DHT22;602;48.000;7.840;2022-12-18T10:07:50;0.20;99.90
1225;DHT22;602;48.000;7.840;2022-12-18T10:10:32;0.30;99.90
1225;DHT22;602;48.000;7.840;2022-12-18T10:13:09;0.40;99.90
1225;DHT22;602;48.000;7.840;2022-12-18T10:15:48;0.50;99.90
1225;DHT22;602;48.000;7.840;2022-12-18T10:18:31;0.60;99.90
1225;DHT22;602;48.000;7.840;2022-12-18T10:21:07;0.90;99.90
1225;DHT22;602;48.000;7.840;2022-12-18T10:23:40;1.00;99.90
1225;DHT22;602;48.000;7.840;2022-12-18T10:26:10;1.10;99.90
1225;DHT22;602;48.000;7.840;2022-12-18T10:28:39;1.10;99.90
1225;DHT22;602;48.000;7.840;2022-12-18T10:31:14;1.30;99.90
1225;DHT22;602;48.000;7.840;2022-12-18T10:33:42;1.30;99.90
1225;DHT22;602;48.000;7.840;2022-12-18T10:36:09;1.00;99.90
1225;DHT22;602;48.000;7.840;2022-12-18T10:38:39;1.20;99.90
1225;DHT22;602;48.000;7.840;2022-12-18T10:44:33;1.90;99.90
1225;DHT22;602;48.000;7.840;2022-12-18T10:47:25;1.90;99.90
1225;DHT22;602;48.000;7.840;2022-12-18T10:49:55;1.90;99.90
1225;DHT22;602;48.000;7.840;2022-12-18T10:52:24;2.10;99.90
1225;DHT22;602;48.000;7.840;2022-12-18T10:54:54;2.10;99.90
1225;DHT22;602;48.000;7.840;2022-12-18T10:57:35;2.10;99.90
1225;DHT22;602;48.000;7.840;2022-12-18T11:00:33;2.20;99.90
1225;DHT22;602;48.000;7.840;2022-12-18T11:03:34;2.10;99.90
1225;DHT22;602;48.000;7.840;2022-12-18T11:06:22;2.30;99.90
1225;DHT22;602;48.000;7.840;2022-12-18T11:09:00;2.20;99.90
1225;DHT22;602;48.000;7.840;2022-12-18T11:11:28;2.30;99.90
1225;DHT22;602;48.000;7.840;2022-12-18T11:14:12;2.20;99.90
1225;DHT22;602;48.000;7.840;2022-12-18T11:16:51;2.10;99.90
1225;DHT22;602;48.000;7.840;2022-12-18T11:19:35;2.20;99.90
1225;DHT22;602;48.000;7.840;2022-12-18T11:22:19;2.20;99.90
1225;DHT22;602;48.000;7.840;2022-12-18T11:24:58;2.10;99.90
1225;DHT22;602;48.000;7.840;2022-12-18T11:30:08;2.60;99.90
1225;DHT22;602;48.000;7.840;2022-12-18T11:32:37;2.50;99.90
1225;DHT22;602;48.000;7.840;2022-12-18T11:35:17;2.30;99.90
1225;DHT22;602;48.000;7.840;2022-12-18T11:37:49;2.10;99.90
1225;DHT22;602;48.000;7.840;2022-12-18T11:40:20;2.10;99.90
1225;DHT22;602;48.000;7.840;2022-12-18T11:45:27;2.00;99.90
1225;DHT22;602;48.000;7.840;2022-12-18T11:48:01;2.10;99.90
1225;DHT22;602;48.000;7.840;2022-12-18T11:50:33;2.40;99.90
1225;DHT22;602;48.000;7.840;2022-12-18T11:53:10;2.60;99.90
1225;DHT22;602;48.000;7.840;2022-12-18T11:55:41;2.50;99.90
1225;DHT22;602;48.000;7.840;2022-12-18T11:58:15;2.50;99.90
1225;DHT22;602;48.000;7.840;2022-12-18T12:00:51;2.50;99.90
1225;DHT22;602;48.000;7.840;2022-12-18T12:03:36;2.50;99.90
1225;DHT22;602;48.000;7.840;2022-12-18T12:06:12;2.50;99.90
1225;DHT22;602;48.000;7.840;2022-12-18T12:08:57;2.40;99.90
1225;DHT22;602;48.000;7.840;2022-12-18T12:11:43;2.50;99.90
1225;DHT22;602;48.000;7.840;2022-12-18T12:14:38;2.60;99.90
1225;DHT22;602;48.000;7.840;2022-12-18T12:17:14;2.70;99.90
1225;DHT22;602;48.000;7.840;2022-12-18T12:19:50;2.60;99.90
1225;DHT22;602;48.000;7.840;2022-12-18T12:22:26;2.50;99.90
1225;DHT22;602;48.000;7.840;2022-12-18T12:25:06;2.40;99.90
1225;DHT22;602;48.000;7.840;2022-12-18T12:27:44;2.20;99.90
1225;DHT22;602;48.000;7.840;2022-12-18T12:30:20;2.20;99.90
1225;DHT22;602;48.000;7.840;2022-12-18T12:33:08;2.10;99.90
1225;DHT22;602;48.000;7.840;2022-12-18T12:35:47;2.00;99.90
1225;DHT22;602;48.000;7.840;2022-12-18T12:38:21;2.00;99.90
1225;DHT22;602;48.000;7.840;2022-12-18T12:40:56;2.00;99.90
1225;DHT22;602;48.000;7.840;2022-12-18T12:43:31;1.90;99.90
1225;DHT22;602;48.000;7.840;2022-12-18T12:46:04;1.90;99.90
1225;DHT22;602;48.000;7.840;2022-12-18T12:48:40;1.80;99.90
1225;DHT22;602;48.000;7.840;2022-12-18T12:51:14;1.80;99.90
1225;DHT22;602;48.000;7.840;2022-12-18T12:53:44;1.70;99.90
1225;DHT22;602;48.000;7.840;2022-12-18T12:56:16;1.70;99.90
1225;DHT22;602;48.000;7.840;2022-12-18T12:58:52;1.70;99.90
1225;DHT22;602;48.000;7.840;2022-12-18T13:01:28;1.70;99.90
1225;DHT22;602;48.000;7.840;2022-12-18T13:04:08;2.00;99.90
1225;DHT22;602;48.000;7.840;2022-12-18T13:06:42;1.90;99.90
1225;DHT22;602;48.000;7.840;2022-12-18T13:09:12;1.80;99.90
1225;DHT22;602;48.000;7.840;2022-12-18T13:11:41;1.60;99.90
1225;DHT22;602;48.000;7.840;2022-12-18T13:14:29;1.60;99.90
1225;DHT22;602;48.000;7.840;2022-12-18T13:17:26;1.60;99.90
1225;DHT22;602;48.000;7.840;2022-12-18T13:20:08;1.20;99.90
1225;DHT22;602;48.000;7.840;2022-12-18T13:22:37;1.40;99.90
1225;DHT22;602;48.000;7.840;2022-12-18T13:25:35;1.50;99.90
1225;DHT22;602;48.000;7.840;2022-12-18T13:28:10;1.70;99.90
1225;DHT22;602;48.000;7.840;2022-12-18T13:30:46;1.60;99.90
1225;DHT22;602;48.000;7.840;2022-12-18T13:33:42;1.50;99.90
1225;DHT22;602;48.000;7.840;2022-12-18T13:36:13;1.50;99.90
1225;DHT22;602;48.000;7.840;2022-12-18T13:38:42;1.50;99.90
1225;DHT22;602;48.000;7.840;2022-12-18T13:41:25;1.70;99.90
1225;DHT22;602;48.000;7.840;2022-12-18T13:43:54;1.60;99.90
1225;DHT22;602;48.000;7.840;2022-12-18T13:46:27;1.80;99.90
1225;DHT22;602;48.000;7.840;2022-12-18T13:48:57;1.70;99.90
1225;DHT22;602;48.000;7.840;2022-12-18T13:51:26;1.80;99.90
1225;DHT22;602;48.000;7.840;2022-12-18T13:53:55;1.80;99.90
1225;DHT22;602;48.000;7.840;2022-12-18T13:56:26;1.90;99.90
1225;DHT22;602;48.000;7.840;2022-12-18T13:59:08;1.90;99.90
1225;DHT22;602;48.000;7.840;2022-12-18T14:01:42;1.80;99.90
1225;DHT22;602;48.000;7.840;2022-12-18T14:04:10;1.80;99.90
1225;DHT22;602;48.000;7.840;2022-12-18T14:06:37;1.60;99.90
1225;DHT22;602;48.000;7.840;2022-12-18T14:09:04;1.70;99.90
1225;DHT22;602;48.000;7.840;2022-12-18T14:11:32;1.70;99.90
1225;DHT22;602;48.000;7.840;2022-12-18T14:13:59;1.70;99.90
1225;DHT22;602;48.000;7.840;2022-12-18T14:16:28;1.70;99.90
1225;DHT22;602;48.000;7.840;2022-12-18T14:18:57;1.70;99.90
1225;DHT22;602;48.000;7.840;2022-12-18T14:21:26;1.80;99.90
1225;DHT22;602;48.000;7.840;2022-12-18T14:24:13;1.90;99.90
1225;DHT22;602;48.000;7.840;2022-12-18T14:26:42;1.90;99.90
1225;DHT22;602;48.000;7.840;2022-12-18T14:29:22;1.70;99.90
1225;DHT22;602;48.000;7.840;2022-12-18T14:32:06;1.70;99.90
1225;DHT22;602;48.000;7.840;2022-12-18T14:34:33;1.70;99.90
1225;DHT22;602;48.000;7.840;2022-12-18T14:37:00;1.70;99.90
1225;DHT22;602;48.000;7.840;2022-12-18T14:39:27;1.70;99.90
1225;DHT22;602;48.000;7.840;2022-12-18T14:41:55;1.50;99.90
1225;DHT22;602;48.000;7.840;2022-12-18T14:44:22;1.50;99.90
1225;DHT22;602;48.000;7.840;2022-12-18T14:46:50;1.60;99.90
1225;DHT22;602;48.000;7.840;2022-12-18T14:49:21;1.40;99.90
1225;DHT22;602;48.000;7.840;2022-12-18T14:51:52;1.30;99.90
1225;DHT22;602;48.000;7.840;2022-12-18T14:54:20;1.40;99.90
1225;DHT22;602;48.000;7.840;2022-12-18T14:56:49;1.40;99.90
1225;DHT22;602;48.000;7.840;2022-12-18T14:59:21;1.40;99.90
1225;DHT22;602;48.000;7.840;2022-12-18T15:01:56;1.40;99.90
1225;DHT22;602;48.000;7.840;2022-12-18T15:04:26;1.40;99.90
1225;DHT22;602;48.000;7.840;2022-12-18T15:07:13;1.50;99.90
1225;DHT22;602;48.000;7.840;2022-12-18T15:09:43;1.50;99.90
1225;DHT22;602;48.000;7.840;2022-12-18T15:12:23;1.40;99.90
1225;DHT22;602;48.000;7.840;2022-12-18T15:14:53;1.30;99.90
1225;DHT22;602;48.000;7.840;2022-12-18T15:17:22;1.10;99.90
1225;DHT22;602;48.000;7.840;2022-12-18T15:19:51;1.00;99.90
1225;DHT22;602;48.000;7.840;2022-12-18T15:22:21;1.00;99.90
1225;DHT22;602;48.000;7.840;2022-12-18T15:24:50;1.10;99.90
1225;DHT22;602;48.000;7.840;2022-12-18T15:27:24;1.20;99.90
1225;DHT22;602;48.000;7.840;2022-12-18T15:30:16;1.10;99.90
1225;DHT22;602;48.000;7.840;2022-12-18T15:32:44;1.20;99.90
1225;DHT22;602;48.000;7.840;2022-12-18T15:35:14;1.10;99.90
1225;DHT22;602;48.000;7.840;2022-12-18T15:37:42;1.20;99.90
1225;DHT22;602;48.000;7.840;2022-12-18T15:40:12;1.30;99.90
1225;DHT22;602;48.000;7.840;2022-12-18T15:42:39;1.20;99.90
1225;DHT22;602;48.000;7.840;2022-12-18T15:45:26;1.20;99.90
1225;DHT22;602;48.000;7.840;2022-12-18T15:47:53;1.20;99.90
1225;DHT22;602;48.000;7.840;2022-12-18T15:50:19;1.20;99.90
1225;DHT22;602;48.000;7.840;2022-12-18T15:52:48;1.10;99.90
1225;DHT22;602;48.000;7.840;2022-12-18T15:55:18;1.10;99.90
1225;DHT22;602;48.000;7.840;2022-12-18T15:58:02;1.00;99.90
1225;DHT22;602;48.000;7.840;2022-12-18T16:00:31;1.00;99.90
1225;DHT22;602;48.000;7.840;2022-12-18T16:02:59;1.00;99.90
1225;DHT22;602;48.000;7.840;2022-12-18T16:05:28;1.00;99.90
1225;DHT22;602;48.000;7.840;2022-12-18T16:07:55;1.00;99.90
1225;DHT22;602;48.000;7.840;2022-12-18T16:10:22;1.10;99.90
1225;DHT22;602;48.000;7.840;2022-12-18T16:12:50;1.20;99.90
1225;DHT22;602;48.000;7.840;2022-12-18T16:15:17;1.30;99.90
1225;DHT22;602;48.000;7.840;2022-12-18T16:17:46;1.30;99.90
1225;DHT22;602;48.000;7.840;2022-12-18T16:20:14;1.40;99.90
1225;DHT22;602;48.000;7.840;2022-12-18T16:22:42;1.40;99.90
1225;DHT22;602;48.000;7.840;2022-12-18T16:25:17;1.40;99.90
1225;DHT22;602;48.000;7.840;2022-12-18T16:27:44;1.30;99.90
1225;DHT22;602;48.000;7.840;2022-12-18T16:30:13;1.40;99.90
1225;DHT22;602;48.000;7.840;2022-12-18T16:32:41;1.40;99.90
1225;DHT22;602;48.000;7.840;2022-12-18T16:35:11;1.40;99.90
1225;DHT22;602;48.000;7.840;2022-12-18T16:37:38;1.50;99.90
1225;DHT22;602;48.000;7.840;2022-12-18T16:40:07;1.40;99.90
1225;DHT22;602;48.000;7.840;2022-12-18T16:42:35;1.40;99.90
1225;DHT22;602;48.000;7.840;2022-12-18T16:45:03;1.50;99.90
1225;DHT22;602;48.000;7.840;2022-12-18T16:47:31;1.50;99.90
1225;DHT22;602;48.000;7.840;2022-12-18T16:49:58;1.40;99.90
1225;DHT22;602;48.000;7.840;2022-12-18T16:52:28;1.30;99.90
1225;DHT22;602;48.000;7.840;2022-12-18T16:54:55;1.20;99.90
1225;DHT22;602;48.000;7.840;2022-12-18T16:57:22;1.30;99.90
1225;DHT22;602;48.000;7.840;2022-12-18T16:59:49;1.30;99.90